KPHN/PHN METAR and TAF weather

Enter ICAO airport designator
Station Type Date Time Source
KPHN METAR 2020/04/06 10:16 UTC NOAA

KPHN 061016Z AUTO 00000KT 10SM CLR M04/M05 A3017 RMK AO2


Station Type Date Time Source
KPHN Decoded METAR 2020/04/06 10:16 UTC NOAA

St. Clair County International, MI, United States (KPHN) 42-55N 082-32W
Apr 06, 2020 - 06:16 AM EDT / 2020.04.06 1016 UTC
Wind: Calm:0
Visibility: 10 mile(s):0
Sky conditions: clear
Temperature: 24 F (-4 C)
Dew Point: 23 F (-5 C)
Relative Humidity: 92%
Pressure (altimeter): 30.17 in. Hg (1021 hPa)
ob: KPHN 061016Z AUTO 00000KT 10SM CLR M04/M05 A3017 RMK AO2
cycle: 10

Station Type Date Time Source
KPHN TAF UTC NOAA

Error!

Example: see airport list